Souda — SVBH5 — position and weather

sailwx.info

Track history (hours):
 
Tides and Currents Weather Stations Pressure Air Temp Water Temp Dewpoint Dewpoint Depression Visibility Wind Speed Wind Dir Waves Ship Positions

Souda

Last reported at 2014-Aug-20 01:33 UTC. Time now 2014-Aug-20 10:52 UTC.
Position N 37°51' E 023°21'.

Length 88 m; draft 5.3 m.

Type: Tanker. MMSI: 241109000.

Date/timePositionNaut miles runAvg speedWind from/ knotsBaromVisibWave heightAir tempDewpointWater temp
2014-Aug-20 01:33N 37°51' E 023°21'9 9.3
2014-Aug-20 00:33N 37°49' E 023°33'8 8.0
2014-Aug-19 23:33N 37°46' E 023°42'9 8.7
2014-Aug-19 22:33N 37°38' E 023°46'51 8.4
2014-Aug-19 16:28N 36°48' E 023°58'10 0.2
2014-Aug-17 18:33N 36°57' E 023°56'11 8.6
2014-Aug-17 17:20N 37°07' E 023°53'25 8.5
2014-Aug-17 14:23N 37°32' E 023°45'7 8.7
2014-Aug-17 13:33N 37°39' E 023°42'9 8.9
2014-Aug-17 12:33N 37°47' E 023°38'8 7.8
2014-Aug-17 11:34N 37°50' E 023°29'8 8.1
2014-Aug-17 10:33N 37°52' E 023°19'10 0.5
2014-Aug-16 12:29N 37°55' E 023°06'0 0.0
2014-Aug-16 11:32N 37°55' E 023°06'0 0.0
2014-Aug-16 10:31N 37°55' E 023°06'0 0.0
2014-Aug-16 09:04N 37°55' E 023°06'0 0.0
2014-Aug-16 07:21N 37°55' E 023°06'0 0.0
2014-Aug-16 06:10N 37°55' E 023°06'0 0.0
2014-Aug-16 05:29N 37°55' E 023°06'0 0.0
2014-Aug-16 04:04N 37°55' E 023°06'0 0.0
2014-Aug-16 02:20N 37°55' E 023°06'0 0.0
2014-Aug-15 21:29N 37°55' E 023°06'0 0.0
2014-Aug-15 18:13N 37°55' E 023°06'0 0.0
2014-Aug-15 17:33N 37°55' E 023°06'0 0.0
2014-Aug-15 16:33N 37°55' E 023°06'0 0.0
2014-Aug-15 15:28N 37°55' E 023°06'0 0.1
2014-Aug-15 14:32N 37°55' E 023°06'0 0.1
2014-Aug-15 13:33N 37°55' E 023°06'0 0.1
2014-Aug-15 12:32N 37°55' E 023°06'0 0.0
2014-Aug-15 05:27N 37°55' E 023°06'0 0.0
2014-Aug-15 04:33N 37°55' E 023°06'0 0.0
2014-Aug-15 03:33N 37°55' E 023°06'0 0.0
2014-Aug-15 01:22N 37°55' E 023°06'0 0.0
2014-Aug-14 22:15N 37°55' E 023°06'0 0.0
2014-Aug-14 21:33N 37°55' E 023°06'0 0.0
2014-Aug-14 20:33N 37°55' E 023°06'0 0.0
2014-Aug-14 19:27N 37°55' E 023°06'0 0.0
2014-Aug-14 17:09N 37°55' E 023°06'0 0.0
2014-Aug-14 16:33N 37°55' E 023°06'0 0.0
2014-Aug-14 15:33N 37°55' E 023°06'0 0.0
2014-Aug-14 14:33N 37°55' E 023°06'0 0.0
2014-Aug-14 04:23N 37°55' E 023°06'0 0.0
2014-Aug-14 00:24N 37°55' E 023°06'1 0.1
2014-Aug-13 07:13N 37°55' E 023°07'14 8.6
2014-Aug-13 05:33N 37°51' E 023°25'9 9.0
2014-Aug-13 04:33N 37°48' E 023°36'8 7.8
2014-Aug-13 03:34N 37°43' E 023°43'9 9.0
2014-Aug-13 02:33N 37°35' E 023°47'21 9.2
2014-Aug-13 00:17N 37°14' E 023°51'6 9.0
2014-Aug-12 23:33N 37°08' E 023°53'9 9.0
2014-Aug-12 22:33N 36°59' E 023°56'9 9.1
2014-Aug-12 21:33N 36°50' E 023°57'10 9.6
2014-Aug-12 20:32N 36°40' E 023°59'9 9.6
2014-Aug-12 19:33N 36°31' E 024°02'10 9.6
2014-Aug-12 18:33N 36°22' E 024°04'10 9.8
2014-Aug-12 17:33N 36°12' E 024°06'10 9.7
2014-Aug-12 16:32N 36°02' E 024°08'10 9.7
2014-Aug-12 15:32N 35°53' E 024°10'23 0.7
2014-Aug-11 05:32N 36°15' E 024°06'8 8.6
2014-Aug-11 04:33N 36°23' E 024°04'9 8.8
2014-Aug-11 03:31N 36°32' E 024°02'12 8.9
2014-Aug-11 02:11N 36°44' E 023°59'6 8.7
2014-Aug-11 01:31N 36°50' E 023°58'9 8.9
2014-Aug-11 00:33N 36°58' E 023°56'9 9.1
2014-Aug-10 23:33N 37°07' E 023°53'31 8.7
2014-Aug-10 20:03N 37°36' E 023°44'4 8.6
2014-Aug-10 19:33N 37°40' E 023°41'9 8.9
2014-Aug-10 18:33N 37°48' E 023°37'8 8.0
2014-Aug-10 17:33N 37°50' E 023°27'  
Track history (hours):
 
Tides and Currents Weather Stations Pressure Air Temp Water Temp Dewpoint Dewpoint Depression Visibility Wind Speed Wind Dir Waves Ship Positions

Souda

Last reported at 2014-Aug-20 01:33 UTC. Time now 2014-Aug-20 10:52 UTC.
Position N 37°51' E 023°21'.

Length 88 m; draft 5.3 m.

Type: Tanker. MMSI: 241109000.

Date/timePositionNaut miles runAvg speedWind from/ knotsBaromVisibWave heightAir tempDewpointWater temp
2014-Aug-20 01:33N 37°51' E 023°21'9 9.3
2014-Aug-20 00:33N 37°49' E 023°33'8 8.0
2014-Aug-19 23:33N 37°46' E 023°42'9 8.7
2014-Aug-19 22:33N 37°38' E 023°46'51 8.4
2014-Aug-19 16:28N 36°48' E 023°58'10 0.2
2014-Aug-17 18:33N 36°57' E 023°56'11 8.6
2014-Aug-17 17:20N 37°07' E 023°53'25 8.5
2014-Aug-17 14:23N 37°32' E 023°45'7 8.7
2014-Aug-17 13:33N 37°39' E 023°42'9 8.9
2014-Aug-17 12:33N 37°47' E 023°38'8 7.8
2014-Aug-17 11:34N 37°50' E 023°29'8 8.1
2014-Aug-17 10:33N 37°52' E 023°19'10 0.5
2014-Aug-16 12:29N 37°55' E 023°06'0 0.0
2014-Aug-16 11:32N 37°55' E 023°06'0 0.0
2014-Aug-16 10:31N 37°55' E 023°06'0 0.0
2014-Aug-16 09:04N 37°55' E 023°06'0 0.0
2014-Aug-16 07:21N 37°55' E 023°06'0 0.0
2014-Aug-16 06:10N 37°55' E 023°06'0 0.0
2014-Aug-16 05:29N 37°55' E 023°06'0 0.0
2014-Aug-16 04:04N 37°55' E 023°06'0 0.0
2014-Aug-16 02:20N 37°55' E 023°06'0 0.0
2014-Aug-15 21:29N 37°55' E 023°06'0 0.0
2014-Aug-15 18:13N 37°55' E 023°06'0 0.0
2014-Aug-15 17:33N 37°55' E 023°06'0 0.0
2014-Aug-15 16:33N 37°55' E 023°06'0 0.0
2014-Aug-15 15:28N 37°55' E 023°06'0 0.1
2014-Aug-15 14:32N 37°55' E 023°06'0 0.1
2014-Aug-15 13:33N 37°55' E 023°06'0 0.1
2014-Aug-15 12:32N 37°55' E 023°06'0 0.0
2014-Aug-15 05:27N 37°55' E 023°06'0 0.0
2014-Aug-15 04:33N 37°55' E 023°06'0 0.0
2014-Aug-15 03:33N 37°55' E 023°06'0 0.0
2014-Aug-15 01:22N 37°55' E 023°06'0 0.0
2014-Aug-14 22:15N 37°55' E 023°06'0 0.0
2014-Aug-14 21:33N 37°55' E 023°06'0 0.0
2014-Aug-14 20:33N 37°55' E 023°06'0 0.0
2014-Aug-14 19:27N 37°55' E 023°06'0 0.0
2014-Aug-14 17:09N 37°55' E 023°06'0 0.0
2014-Aug-14 16:33N 37°55' E 023°06'0 0.0
2014-Aug-14 15:33N 37°55' E 023°06'0 0.0
2014-Aug-14 14:33N 37°55' E 023°06'0 0.0
2014-Aug-14 04:23N 37°55' E 023°06'0 0.0
2014-Aug-14 00:24N 37°55' E 023°06'1 0.1
2014-Aug-13 07:13N 37°55' E 023°07'14 8.6
2014-Aug-13 05:33N 37°51' E 023°25'9 9.0
2014-Aug-13 04:33N 37°48' E 023°36'8 7.8
2014-Aug-13 03:34N 37°43' E 023°43'9 9.0
2014-Aug-13 02:33N 37°35' E 023°47'21 9.2
2014-Aug-13 00:17N 37°14' E 023°51'6 9.0
2014-Aug-12 23:33N 37°08' E 023°53'9 9.0
2014-Aug-12 22:33N 36°59' E 023°56'9 9.1
2014-Aug-12 21:33N 36°50' E 023°57'10 9.6
2014-Aug-12 20:32N 36°40' E 023°59'9 9.6
2014-Aug-12 19:33N 36°31' E 024°02'10 9.6
2014-Aug-12 18:33N 36°22' E 024°04'10 9.8
2014-Aug-12 17:33N 36°12' E 024°06'10 9.7
2014-Aug-12 16:32N 36°02' E 024°08'10 9.7
2014-Aug-12 15:32N 35°53' E 024°10'23 0.7
2014-Aug-11 05:32N 36°15' E 024°06'8 8.6
2014-Aug-11 04:33N 36°23' E 024°04'9 8.8
2014-Aug-11 03:31N 36°32' E 024°02'12 8.9
2014-Aug-11 02:11N 36°44' E 023°59'6 8.7
2014-Aug-11 01:31N 36°50' E 023°58'9 8.9
2014-Aug-11 00:33N 36°58' E 023°56'9 9.1
2014-Aug-10 23:33N 37°07' E 023°53'31 8.7
2014-Aug-10 20:03N 37°36' E 023°44'4 8.6
2014-Aug-10 19:33N 37°40' E 023°41'9 8.9
2014-Aug-10 18:33N 37°48' E 023°37'8 8.0
2014-Aug-10 17:33N 37°50' E 023°27'  

Dump ship's entire track history